createdAt,value
2022-10-18T00:26:07.254Z,15.40
2022-10-18T00:47:57.201Z,15.15
2022-10-18T01:09:48.425Z,15.36
2022-10-18T01:41:04.281Z,15.17
2022-10-18T02:02:53.886Z,14.86
2022-10-18T02:24:44.610Z,14.89
2022-10-18T02:46:30.463Z,14.66
2022-10-18T03:08:16.280Z,14.38
2022-10-18T03:30:02.158Z,14.38
2022-10-18T03:51:47.825Z,14.20
2022-10-18T04:13:33.606Z,14.04
2022-10-18T04:35:19.900Z,13.90
2022-10-18T04:57:06.080Z,13.74
2022-10-18T05:18:51.917Z,13.62
2022-10-18T05:40:39.336Z,13.43
2022-10-18T06:02:25.101Z,13.46
2022-10-18T06:24:11.378Z,13.56
2022-10-18T06:45:57.382Z,13.95
2022-10-18T07:07:43.227Z,14.81
2022-10-18T07:29:29.065Z,15.64
2022-10-18T07:51:15.304Z,16.63
2022-10-18T08:13:00.971Z,21.47
2022-10-18T08:34:46.745Z,29.13
2022-10-18T08:56:34.132Z,33.73
2022-10-18T09:18:47.532Z,37.09
2022-10-18T09:40:39.662Z,38.65
2022-10-18T10:02:26.062Z,36.76
2022-10-18T10:24:24.995Z,35.81
2022-10-18T10:46:16.187Z,29.77
2022-10-18T11:08:06.166Z,27.15
2022-10-18T11:30:05.300Z,25.16
2022-10-18T11:52:08.340Z,24.45
2022-10-18T12:13:59.022Z,24.33
2022-10-18T12:35:56.420Z,23.96
2022-10-18T12:58:06.075Z,23.62
2022-10-18T13:20:23.964Z,23.26
2022-10-18T13:42:34.209Z,23.31
2022-10-18T14:05:10.796Z,23.31
2022-10-18T14:27:19.307Z,22.41
2022-10-18T14:49:07.870Z,20.74
2022-10-18T15:10:54.884Z,18.93
2022-10-18T15:32:48.359Z,17.03
2022-10-18T15:54:34.083Z,16.28
2022-10-18T16:16:22.989Z,16.05
2022-10-18T16:38:14.861Z,16.06
2022-10-18T17:00:00.659Z,16.30
2022-10-18T17:21:46.552Z,16.43
2022-10-18T17:43:32.399Z,16.37
2022-10-18T18:05:18.162Z,16.32
2022-10-18T18:27:03.939Z,16.36
2022-10-18T18:48:51.398Z,16.13
2022-10-18T19:10:37.526Z,16.22
2022-10-18T19:32:23.329Z,16.36
2022-10-18T19:54:09.140Z,16.19
2022-10-18T20:26:06.497Z,16.40
2022-10-18T20:47:52.237Z,16.47
2022-10-18T21:09:37.966Z,16.34
2022-10-18T21:41:11.192Z,16.37
2022-10-18T22:03:10.283Z,16.30
2022-10-18T22:24:56.437Z,16.29
2022-10-18T22:46:45.572Z,16.24
2022-10-18T23:26:00.805Z,15.79
2022-10-18T23:47:46.536Z,15.27
